Lewistown, Montana
Current Conditions -  °F | °C
As of 6:54 PM on Monday 20 Oct 2014 (Local Time) from KLWT Reporting Station
Clear Clear  
Wind Chill: 60°   Ceiling: Unl
Heat Index: 60°   Visibility: 10mi
Dew Point: 36°   Wind: 10mph
Humidity: 41%   Direction: 180°S
Pressure: 29.82"   Gusts: NA
Location:  47.07°N, 109.42°W
Report Text: KLWT 210054Z AUTO 18009KT 10SM CLR 16/02 A2982 RMK AO2 SLP086 T01560022
Loading
Personal Weather Stations






























Interactive Weather Map New forecast layout! Learn more

10-Day Weather Forecast

Advertisements
Track Severe Weather on mobile